sensor_id;sensor_type;location;lat;lon;timestamp;P1;durP1;ratioP1;P2;durP2;ratioP2
36423;SDS011;22458;45.328;9.514;2022-09-17T00:01:22;1.17;;;0.88;;
36423;SDS011;22458;45.328;9.514;2022-09-17T00:03:49;3.15;;;1.75;;
36423;SDS011;22458;45.328;9.514;2022-09-17T00:06:16;3.05;;;1.25;;
36423;SDS011;22458;45.328;9.514;2022-09-17T00:08:43;1.92;;;0.95;;
36423;SDS011;22458;45.328;9.514;2022-09-17T00:11:19;3.28;;;1.20;;
36423;SDS011;22458;45.328;9.514;2022-09-17T00:13:47;1.93;;;0.83;;
36423;SDS011;22458;45.328;9.514;2022-09-17T00:16:20;1.52;;;0.73;;
36423;SDS011;22458;45.328;9.514;2022-09-17T00:18:49;2.67;;;0.95;;
36423;SDS011;22458;45.328;9.514;2022-09-17T00:21:15;3.15;;;1.10;;
36423;SDS011;22458;45.328;9.514;2022-09-17T00:23:42;1.17;;;0.70;;
36423;SDS011;22458;45.328;9.514;2022-09-17T00:26:08;1.38;;;0.75;;
36423;SDS011;22458;45.328;9.514;2022-09-17T00:28:34;4.45;;;0.90;;
36423;SDS011;22458;45.328;9.514;2022-09-17T00:31:00;2.22;;;1.10;;
36423;SDS011;22458;45.328;9.514;2022-09-17T00:33:25;6.25;;;0.90;;
36423;SDS011;22458;45.328;9.514;2022-09-17T00:35:58;1.52;;;0.88;;
36423;SDS011;22458;45.328;9.514;2022-09-17T00:38:24;3.50;;;1.00;;
36423;SDS011;22458;45.328;9.514;2022-09-17T00:40:50;3.33;;;1.00;;
36423;SDS011;22458;45.328;9.514;2022-09-17T00:43:31;1.67;;;0.80;;
36423;SDS011;22458;45.328;9.514;2022-09-17T00:45:59;1.90;;;0.90;;
36423;SDS011;22458;45.328;9.514;2022-09-17T00:48:25;1.75;;;1.10;;
36423;SDS011;22458;45.328;9.514;2022-09-17T00:50:51;2.72;;;1.33;;
36423;SDS011;22458;45.328;9.514;2022-09-17T00:53:19;4.20;;;1.10;;
36423;SDS011;22458;45.328;9.514;2022-09-17T00:55:49;2.20;;;0.98;;
36423;SDS011;22458;45.328;9.514;2022-09-17T00:58:21;4.68;;;1.20;;
36423;SDS011;22458;45.328;9.514;2022-09-17T01:00:49;4.28;;;1.10;;
36423;SDS011;22458;45.328;9.514;2022-09-17T01:03:15;4.32;;;1.10;;
36423;SDS011;22458;45.328;9.514;2022-09-17T01:16:46;5.90;;;2.55;;
36423;SDS011;22458;45.328;9.514;2022-09-17T01:19:27;5.28;;;2.63;;
36423;SDS011;22458;45.328;9.514;2022-09-17T01:27:41;3.17;;;2.80;;
36423;SDS011;22458;45.328;9.514;2022-09-17T01:30:37;4.22;;;2.72;;
36423;SDS011;22458;45.328;9.514;2022-09-17T01:33:51;2.67;;;1.98;;
36423;SDS011;22458;45.328;9.514;2022-09-17T01:39:02;2.67;;;1.80;;
36423;SDS011;22458;45.328;9.514;2022-09-17T01:41:44;5.40;;;1.90;;
36423;SDS011;22458;45.328;9.514;2022-09-17T01:44:24;2.35;;;1.80;;
36423;SDS011;22458;45.328;9.514;2022-09-17T01:47:07;2.28;;;1.67;;
36423;SDS011;22458;45.328;9.514;2022-09-17T01:49:41;3.05;;;1.55;;
36423;SDS011;22458;45.328;9.514;2022-09-17T01:52:09;3.00;;;2.10;;
36423;SDS011;22458;45.328;9.514;2022-09-17T01:54:39;1.42;;;1.17;;
36423;SDS011;22458;45.328;9.514;2022-09-17T01:57:17;2.42;;;1.20;;
36423;SDS011;22458;45.328;9.514;2022-09-17T02:02:49;2.63;;;1.67;;
36423;SDS011;22458;45.328;9.514;2022-09-17T02:07:58;2.15;;;1.02;;
36423;SDS011;22458;45.328;9.514;2022-09-17T02:10:32;3.53;;;1.40;;
36423;SDS011;22458;45.328;9.514;2022-09-17T02:13:09;2.88;;;1.40;;
36423;SDS011;22458;45.328;9.514;2022-09-17T02:16:02;2.05;;;0.93;;
36423;SDS011;22458;45.328;9.514;2022-09-17T02:24:17;3.20;;;1.52;;
36423;SDS011;22458;45.328;9.514;2022-09-17T02:29:36;3.47;;;1.92;;
36423;SDS011;22458;45.328;9.514;2022-09-17T02:32:04;3.45;;;2.03;;
36423;SDS011;22458;45.328;9.514;2022-09-17T02:34:30;2.88;;;1.48;;
36423;SDS011;22458;45.328;9.514;2022-09-17T02:36:56;2.63;;;1.30;;
36423;SDS011;22458;45.328;9.514;2022-09-17T02:39:23;3.90;;;2.28;;
36423;SDS011;22458;45.328;9.514;2022-09-17T02:42:12;3.20;;;1.60;;
36423;SDS011;22458;45.328;9.514;2022-09-17T02:56:45;3.35;;;2.38;;
36423;SDS011;22458;45.328;9.514;2022-09-17T02:59:39;1.48;;;0.93;;
36423;SDS011;22458;45.328;9.514;2022-09-17T03:02:34;6.97;;;4.30;;
36423;SDS011;22458;45.328;9.514;2022-09-17T03:05:04;3.50;;;1.30;;
36423;SDS011;22458;45.328;9.514;2022-09-17T03:07:32;2.33;;;1.10;;
36423;SDS011;22458;45.328;9.514;2022-09-17T03:09:58;0.88;;;0.77;;
36423;SDS011;22458;45.328;9.514;2022-09-17T03:12:25;1.60;;;0.80;;
36423;SDS011;22458;45.328;9.514;2022-09-17T03:14:51;1.45;;;1.10;;
36423;SDS011;22458;45.328;9.514;2022-09-17T03:17:17;0.88;;;0.68;;
36423;SDS011;22458;45.328;9.514;2022-09-17T03:19:42;1.25;;;0.70;;
36423;SDS011;22458;45.328;9.514;2022-09-17T03:22:08;1.20;;;0.73;;
36423;SDS011;22458;45.328;9.514;2022-09-17T03:24:34;1.02;;;0.80;;
36423;SDS011;22458;45.328;9.514;2022-09-17T03:27:00;1.17;;;0.80;;
36423;SDS011;22458;45.328;9.514;2022-09-17T03:29:26;1.00;;;0.65;;
36423;SDS011;22458;45.328;9.514;2022-09-17T03:31:51;1.25;;;0.47;;
36423;SDS011;22458;45.328;9.514;2022-09-17T03:34:17;1.30;;;0.70;;
36423;SDS011;22458;45.328;9.514;2022-09-17T03:36:44;1.77;;;0.35;;
36423;SDS011;22458;45.328;9.514;2022-09-17T03:39:10;0.95;;;0.45;;
36423;SDS011;22458;45.328;9.514;2022-09-17T03:41:35;0.90;;;0.50;;
36423;SDS011;22458;45.328;9.514;2022-09-17T03:44:03;0.68;;;0.47;;
36423;SDS011;22458;45.328;9.514;2022-09-17T03:46:29;0.93;;;0.50;;
36423;SDS011;22458;45.328;9.514;2022-09-17T03:48:55;0.75;;;0.50;;
36423;SDS011;22458;45.328;9.514;2022-09-17T03:51:21;0.70;;;0.40;;
36423;SDS011;22458;45.328;9.514;2022-09-17T03:53:47;0.80;;;0.73;;
36423;SDS011;22458;45.328;9.514;2022-09-17T03:56:13;1.77;;;0.47;;
36423;SDS011;22458;45.328;9.514;2022-09-17T03:58:39;0.50;;;0.28;;
36423;SDS011;22458;45.328;9.514;2022-09-17T04:01:05;1.15;;;0.60;;
36423;SDS011;22458;45.328;9.514;2022-09-17T04:03:31;0.73;;;0.32;;
36423;SDS011;22458;45.328;9.514;2022-09-17T04:05:57;0.77;;;0.45;;
36423;SDS011;22458;45.328;9.514;2022-09-17T04:08:23;1.30;;;0.50;;
36423;SDS011;22458;45.328;9.514;2022-09-17T04:10:49;1.08;;;0.57;;
36423;SDS011;22458;45.328;9.514;2022-09-17T04:13:16;0.98;;;0.60;;
36423;SDS011;22458;45.328;9.514;2022-09-17T04:15:43;0.80;;;0.45;;
36423;SDS011;22458;45.328;9.514;2022-09-17T04:18:09;1.58;;;0.55;;
36423;SDS011;22458;45.328;9.514;2022-09-17T04:20:35;2.45;;;0.50;;
36423;SDS011;22458;45.328;9.514;2022-09-17T04:23:01;1.58;;;0.60;;
36423;SDS011;22458;45.328;9.514;2022-09-17T04:25:27;1.58;;;0.65;;
36423;SDS011;22458;45.328;9.514;2022-09-17T04:27:52;1.20;;;0.50;;
36423;SDS011;22458;45.328;9.514;2022-09-17T04:30:18;1.00;;;0.50;;
36423;SDS011;22458;45.328;9.514;2022-09-17T04:32:44;0.70;;;0.40;;
36423;SDS011;22458;45.328;9.514;2022-09-17T04:35:11;1.75;;;0.38;;
36423;SDS011;22458;45.328;9.514;2022-09-17T04:37:37;2.58;;;0.50;;
36423;SDS011;22458;45.328;9.514;2022-09-17T04:40:03;0.95;;;0.38;;
36423;SDS011;22458;45.328;9.514;2022-09-17T04:42:30;0.95;;;0.47;;
36423;SDS011;22458;45.328;9.514;2022-09-17T04:44:55;0.52;;;0.30;;
36423;SDS011;22458;45.328;9.514;2022-09-17T04:47:22;0.40;;;0.30;;
36423;SDS011;22458;45.328;9.514;2022-09-17T04:49:48;1.10;;;0.43;;
36423;SDS011;22458;45.328;9.514;2022-09-17T04:52:14;0.52;;;0.30;;
36423;SDS011;22458;45.328;9.514;2022-09-17T04:54:40;0.75;;;0.32;;
36423;SDS011;22458;45.328;9.514;2022-09-17T04:57:05;1.08;;;0.40;;
36423;SDS011;22458;45.328;9.514;2022-09-17T04:59:34;0.93;;;0.40;;
36423;SDS011;22458;45.328;9.514;2022-09-17T05:01:59;0.70;;;0.30;;
36423;SDS011;22458;45.328;9.514;2022-09-17T05:04:27;1.40;;;0.40;;
36423;SDS011;22458;45.328;9.514;2022-09-17T05:06:52;0.77;;;0.40;;
36423;SDS011;22458;45.328;9.514;2022-09-17T05:09:18;0.68;;;0.22;;
36423;SDS011;22458;45.328;9.514;2022-09-17T05:11:44;0.40;;;0.20;;
36423;SDS011;22458;45.328;9.514;2022-09-17T05:14:10;0.40;;;0.30;;
36423;SDS011;22458;45.328;9.514;2022-09-17T05:16:36;0.70;;;0.30;;
36423;SDS011;22458;45.328;9.514;2022-09-17T05:19:02;0.77;;;0.40;;
36423;SDS011;22458;45.328;9.514;2022-09-17T05:21:29;0.77;;;0.40;;
36423;SDS011;22458;45.328;9.514;2022-09-17T05:23:55;0.47;;;0.20;;
36423;SDS011;22458;45.328;9.514;2022-09-17T05:26:21;0.50;;;0.28;;
36423;SDS011;22458;45.328;9.514;2022-09-17T05:28:47;0.50;;;0.30;;
36423;SDS011;22458;45.328;9.514;2022-09-17T05:31:12;0.50;;;0.20;;
36423;SDS011;22458;45.328;9.514;2022-09-17T05:33:38;0.88;;;0.30;;
36423;SDS011;22458;45.328;9.514;2022-09-17T05:36:04;0.60;;;0.40;;
36423;SDS011;22458;45.328;9.514;2022-09-17T05:38:31;0.75;;;0.30;;
36423;SDS011;22458;45.328;9.514;2022-09-17T05:40:56;0.68;;;0.35;;
36423;SDS011;22458;45.328;9.514;2022-09-17T05:43:22;1.55;;;0.35;;
36423;SDS011;22458;45.328;9.514;2022-09-17T05:45:50;0.60;;;0.30;;
36423;SDS011;22458;45.328;9.514;2022-09-17T05:48:18;1.40;;;0.40;;
36423;SDS011;22458;45.328;9.514;2022-09-17T05:50:44;0.70;;;0.30;;
36423;SDS011;22458;45.328;9.514;2022-09-17T05:53:10;0.50;;;0.35;;
36423;SDS011;22458;45.328;9.514;2022-09-17T05:55:36;0.40;;;0.20;;
36423;SDS011;22458;45.328;9.514;2022-09-17T05:58:12;0.45;;;0.20;;
36423;SDS011;22458;45.328;9.514;2022-09-17T06:00:43;1.08;;;0.57;;
36423;SDS011;22458;45.328;9.514;2022-09-17T06:03:11;0.98;;;0.30;;
36423;SDS011;22458;45.328;9.514;2022-09-17T06:05:38;0.82;;;0.43;;
36423;SDS011;22458;45.328;9.514;2022-09-17T06:08:04;1.10;;;0.43;;
36423;SDS011;22458;45.328;9.514;2022-09-17T06:10:30;0.52;;;0.30;;
36423;SDS011;22458;45.328;9.514;2022-09-17T06:12:56;0.43;;;0.20;;
36423;SDS011;22458;45.328;9.514;2022-09-17T06:15:23;1.00;;;0.40;;
36423;SDS011;22458;45.328;9.514;2022-09-17T06:17:50;0.82;;;0.40;;
36423;SDS011;22458;45.328;9.514;2022-09-17T06:20:17;1.33;;;1.08;;
36423;SDS011;22458;45.328;9.514;2022-09-17T06:22:43;0.50;;;0.20;;
36423;SDS011;22458;45.328;9.514;2022-09-17T06:25:09;0.38;;;0.20;;
36423;SDS011;22458;45.328;9.514;2022-09-17T06:27:36;1.60;;;0.25;;
36423;SDS011;22458;45.328;9.514;2022-09-17T06:30:02;1.55;;;0.30;;
36423;SDS011;22458;45.328;9.514;2022-09-17T06:32:29;0.50;;;0.20;;
36423;SDS011;22458;45.328;9.514;2022-09-17T06:34:54;0.50;;;0.30;;
36423;SDS011;22458;45.328;9.514;2022-09-17T06:37:27;0.55;;;0.32;;
36423;SDS011;22458;45.328;9.514;2022-09-17T06:39:54;1.48;;;0.50;;
36423;SDS011;22458;45.328;9.514;2022-09-17T06:42:20;0.30;;;0.20;;
36423;SDS011;22458;45.328;9.514;2022-09-17T06:44:47;0.52;;;0.30;;
36423;SDS011;22458;45.328;9.514;2022-09-17T06:47:13;0.38;;;0.20;;
36423;SDS011;22458;45.328;9.514;2022-09-17T06:49:38;0.52;;;0.20;;
36423;SDS011;22458;45.328;9.514;2022-09-17T06:52:04;0.70;;;0.40;;
36423;SDS011;22458;45.328;9.514;2022-09-17T06:54:30;0.82;;;0.20;;
36423;SDS011;22458;45.328;9.514;2022-09-17T06:56:56;1.73;;;0.30;;
36423;SDS011;22458;45.328;9.514;2022-09-17T06:59:22;0.47;;;0.38;;
36423;SDS011;22458;45.328;9.514;2022-09-17T07:01:48;0.47;;;0.25;;
36423;SDS011;22458;45.328;9.514;2022-09-17T07:04:14;0.88;;;0.30;;
36423;SDS011;22458;45.328;9.514;2022-09-17T07:06:42;0.63;;;0.30;;
36423;SDS011;22458;45.328;9.514;2022-09-17T07:09:07;1.33;;;0.40;;
36423;SDS011;22458;45.328;9.514;2022-09-17T07:11:33;0.65;;;0.32;;
36423;SDS011;22458;45.328;9.514;2022-09-17T07:13:59;0.30;;;0.17;;
36423;SDS011;22458;45.328;9.514;2022-09-17T07:16:25;1.48;;;0.50;;
36423;SDS011;22458;45.328;9.514;2022-09-17T07:18:51;1.27;;;0.40;;
36423;SDS011;22458;45.328;9.514;2022-09-17T07:21:17;0.60;;;0.30;;
36423;SDS011;22458;45.328;9.514;2022-09-17T07:23:42;1.77;;;0.95;;
36423;SDS011;22458;45.328;9.514;2022-09-17T07:26:13;0.93;;;0.30;;
36423;SDS011;22458;45.328;9.514;2022-09-17T07:28:40;1.00;;;0.20;;
36423;SDS011;22458;45.328;9.514;2022-09-17T07:31:08;1.50;;;0.30;;
36423;SDS011;22458;45.328;9.514;2022-09-17T07:33:35;0.35;;;0.22;;
36423;SDS011;22458;45.328;9.514;2022-09-17T07:36:03;1.85;;;0.43;;
36423;SDS011;22458;45.328;9.514;2022-09-17T07:38:30;1.33;;;0.35;;
36423;SDS011;22458;45.328;9.514;2022-09-17T07:41:05;0.85;;;0.40;;
36423;SDS011;22458;45.328;9.514;2022-09-17T07:43:34;1.25;;;0.70;;
36423;SDS011;22458;45.328;9.514;2022-09-17T07:46:02;0.93;;;0.50;;
36423;SDS011;22458;45.328;9.514;2022-09-17T07:48:29;0.82;;;0.40;;
36423;SDS011;22458;45.328;9.514;2022-09-17T07:50:55;2.97;;;0.40;;
36423;SDS011;22458;45.328;9.514;2022-09-17T07:53:21;0.60;;;0.40;;
36423;SDS011;22458;45.328;9.514;2022-09-17T07:55:50;0.90;;;0.40;;
36423;SDS011;22458;45.328;9.514;2022-09-17T08:00:42;1.80;;;0.50;;
36423;SDS011;22458;45.328;9.514;2022-09-17T08:03:08;1.95;;;0.63;;
36423;SDS011;22458;45.328;9.514;2022-09-17T08:05:33;0.70;;;0.43;;
36423;SDS011;22458;45.328;9.514;2022-09-17T08:07:59;1.20;;;0.60;;
36423;SDS011;22458;45.328;9.514;2022-09-17T08:10:25;1.33;;;0.60;;
36423;SDS011;22458;45.328;9.514;2022-09-17T08:12:55;0.70;;;0.40;;
36423;SDS011;22458;45.328;9.514;2022-09-17T08:15:22;1.48;;;0.50;;
36423;SDS011;22458;45.328;9.514;2022-09-17T08:17:48;1.10;;;0.40;;
36423;SDS011;22458;45.328;9.514;2022-09-17T08:20:15;1.35;;;0.55;;
36423;SDS011;22458;45.328;9.514;2022-09-17T08:22:42;0.75;;;0.30;;
36423;SDS011;22458;45.328;9.514;2022-09-17T08:25:08;0.45;;;0.30;;
36423;SDS011;22458;45.328;9.514;2022-09-17T08:27:36;0.50;;;0.30;;
36423;SDS011;22458;45.328;9.514;2022-09-17T08:30:03;0.63;;;0.27;;
36423;SDS011;22458;45.328;9.514;2022-09-17T08:32:30;0.43;;;0.30;;
36423;SDS011;22458;45.328;9.514;2022-09-17T08:34:56;1.52;;;0.43;;
36423;SDS011;22458;45.328;9.514;2022-09-17T08:37:21;0.63;;;0.30;;
36423;SDS011;22458;45.328;9.514;2022-09-17T08:39:47;0.60;;;0.35;;
36423;SDS011;22458;45.328;9.514;2022-09-17T08:42:19;0.85;;;0.38;;
36423;SDS011;22458;45.328;9.514;2022-09-17T08:44:55;0.63;;;0.25;;
36423;SDS011;22458;45.328;9.514;2022-09-17T08:47:24;0.47;;;0.20;;
36423;SDS011;22458;45.328;9.514;2022-09-17T08:49:58;1.15;;;0.35;;
36423;SDS011;22458;45.328;9.514;2022-09-17T09:00:54;0.73;;;0.20;;
36423;SDS011;22458;45.328;9.514;2022-09-17T09:06:06;0.47;;;0.20;;
36423;SDS011;22458;45.328;9.514;2022-09-17T09:08:46;2.40;;;0.50;;
36423;SDS011;22458;45.328;9.514;2022-09-17T09:11:25;0.63;;;0.20;;
36423;SDS011;22458;45.328;9.514;2022-09-17T09:13:54;1.65;;;0.25;;
36423;SDS011;22458;45.328;9.514;2022-09-17T09:16:29;0.50;;;0.20;;
36423;SDS011;22458;45.328;9.514;2022-09-17T09:18:59;0.77;;;0.40;;
36423;SDS011;22458;45.328;9.514;2022-09-17T09:22:04;0.35;;;0.20;;
36423;SDS011;22458;45.328;9.514;2022-09-17T09:35:01;1.63;;;0.40;;
36423;SDS011;22458;45.328;9.514;2022-09-17T09:40:23;0.68;;;0.32;;
36423;SDS011;22458;45.328;9.514;2022-09-17T09:43:03;1.38;;;0.28;;
36423;SDS011;22458;45.328;9.514;2022-09-17T09:59:13;1.27;;;0.30;;
36423;SDS011;22458;45.328;9.514;2022-09-17T10:01:40;0.30;;;0.13;;
36423;SDS011;22458;45.328;9.514;2022-09-17T10:04:14;0.80;;;0.30;;
36423;SDS011;22458;45.328;9.514;2022-09-17T10:06:40;1.17;;;0.20;;
36423;SDS011;22458;45.328;9.514;2022-09-17T10:11:31;0.88;;;0.10;;
36423;SDS011;22458;45.328;9.514;2022-09-17T10:14:14;0.60;;;0.20;;
36423;SDS011;22458;45.328;9.514;2022-09-17T10:16:40;0.70;;;0.20;;
36423;SDS011;22458;45.328;9.514;2022-09-17T10:21:32;0.40;;;0.20;;
36423;SDS011;22458;45.328;9.514;2022-09-17T10:24:00;2.63;;;0.30;;
36423;SDS011;22458;45.328;9.514;2022-09-17T10:26:31;1.05;;;0.13;;
36423;SDS011;22458;45.328;9.514;2022-09-17T10:29:10;0.40;;;0.20;;
36423;SDS011;22458;45.328;9.514;2022-09-17T10:36:48;0.43;;;0.20;;
36423;SDS011;22458;45.328;9.514;2022-09-17T10:41:52;0.32;;;0.10;;
36423;SDS011;22458;45.328;9.514;2022-09-17T10:44:27;0.65;;;0.28;;
36423;SDS011;22458;45.328;9.514;2022-09-17T10:47:00;0.40;;;0.20;;
36423;SDS011;22458;45.328;9.514;2022-09-17T11:00:51;0.63;;;0.22;;
36423;SDS011;22458;45.328;9.514;2022-09-17T11:06:48;0.52;;;0.40;;
36423;SDS011;22458;45.328;9.514;2022-09-17T11:12:20;3.20;;;1.02;;
36423;SDS011;22458;45.328;9.514;2022-09-17T11:15:02;1.92;;;0.52;;
36423;SDS011;22458;45.328;9.514;2022-09-17T11:37:55;0.47;;;0.20;;
36423;SDS011;22458;45.328;9.514;2022-09-17T11:40:36;0.30;;;0.20;;
36423;SDS011;22458;45.328;9.514;2022-09-17T11:43:30;1.10;;;0.10;;
36423;SDS011;22458;45.328;9.514;2022-09-17T11:46:05;0.40;;;0.20;;
36423;SDS011;22458;45.328;9.514;2022-09-17T11:49:03;0.38;;;0.20;;
36423;SDS011;22458;45.328;9.514;2022-09-17T11:51:37;0.20;;;0.13;;
36423;SDS011;22458;45.328;9.514;2022-09-17T11:57:11;0.40;;;0.20;;
36423;SDS011;22458;45.328;9.514;2022-09-17T12:05:06;1.02;;;0.50;;
36423;SDS011;22458;45.328;9.514;2022-09-17T12:07:40;0.30;;;0.20;;
36423;SDS011;22458;45.328;9.514;2022-09-17T12:13:06;0.22;;;0.10;;
36423;SDS011;22458;45.328;9.514;2022-09-17T12:15:48;0.28;;;0.20;;
36423;SDS011;22458;45.328;9.514;2022-09-17T12:24:30;0.60;;;0.17;;
36423;SDS011;22458;45.328;9.514;2022-09-17T12:32:37;0.50;;;0.20;;
36423;SDS011;22458;45.328;9.514;2022-09-17T12:52:03;0.50;;;0.20;;
36423;SDS011;22458;45.328;9.514;2022-09-17T12:57:21;0.38;;;0.20;;
36423;SDS011;22458;45.328;9.514;2022-09-17T13:00:10;0.57;;;0.30;;
36423;SDS011;22458;45.328;9.514;2022-09-17T13:21:31;0.50;;;0.20;;
36423;SDS011;22458;45.328;9.514;2022-09-17T13:24:01;2.15;;;0.30;;
36423;SDS011;22458;45.328;9.514;2022-09-17T13:26:42;0.17;;;0.10;;
36423;SDS011;22458;45.328;9.514;2022-09-17T13:29:12;0.50;;;0.20;;
36423;SDS011;22458;45.328;9.514;2022-09-17T13:32:52;1.38;;;0.20;;
36423;SDS011;22458;45.328;9.514;2022-09-17T13:37:33;1.55;;;0.10;;
36423;SDS011;22458;45.328;9.514;2022-09-17T13:40:03;0.30;;;0.20;;
36423;SDS011;22458;45.328;9.514;2022-09-17T13:42:41;1.37;;;0.37;;
36423;SDS011;22458;45.328;9.514;2022-09-17T13:45:10;0.13;;;0.10;;
36423;SDS011;22458;45.328;9.514;2022-09-17T13:50:33;0.25;;;0.10;;
36423;SDS011;22458;45.328;9.514;2022-09-17T13:55:39;1.52;;;0.17;;
36423;SDS011;22458;45.328;9.514;2022-09-17T13:58:20;0.52;;;0.20;;
36423;SDS011;22458;45.328;9.514;2022-09-17T14:08:26;0.75;;;0.35;;
36423;SDS011;22458;45.328;9.514;2022-09-17T14:10:59;0.70;;;0.30;;
36423;SDS011;22458;45.328;9.514;2022-09-17T14:13:39;0.20;;;0.10;;
36423;SDS011;22458;45.328;9.514;2022-09-17T14:38:29;0.25;;;0.10;;
36423;SDS011;22458;45.328;9.514;2022-09-17T14:40:58;0.40;;;0.20;;
36423;SDS011;22458;45.328;9.514;2022-09-17T14:43:39;0.30;;;0.10;;
36423;SDS011;22458;45.328;9.514;2022-09-17T14:46:24;0.30;;;0.20;;
36423;SDS011;22458;45.328;9.514;2022-09-17T14:48:52;0.20;;;0.10;;
36423;SDS011;22458;45.328;9.514;2022-09-17T14:53:44;4.72;;;0.30;;
36423;SDS011;22458;45.328;9.514;2022-09-17T14:56:18;0.32;;;0.10;;
36423;SDS011;22458;45.328;9.514;2022-09-17T14:58:47;0.20;;;0.10;;
36423;SDS011;22458;45.328;9.514;2022-09-17T15:01:25;0.38;;;0.20;;
36423;SDS011;22458;45.328;9.514;2022-09-17T15:06:37;0.47;;;0.20;;
36423;SDS011;22458;45.328;9.514;2022-09-17T15:09:16;0.30;;;0.15;;
36423;SDS011;22458;45.328;9.514;2022-09-17T15:11:50;0.30;;;0.10;;
36423;SDS011;22458;45.328;9.514;2022-09-17T15:14:23;1.50;;;0.20;;
36423;SDS011;22458;45.328;9.514;2022-09-17T15:16:56;0.20;;;0.13;;
36423;SDS011;22458;45.328;9.514;2022-09-17T15:22:03;0.20;;;0.10;;
36423;SDS011;22458;45.328;9.514;2022-09-17T15:24:40;0.17;;;0.10;;
36423;SDS011;22458;45.328;9.514;2022-09-17T15:30:12;0.38;;;0.17;;
36423;SDS011;22458;45.328;9.514;2022-09-17T15:32:41;0.40;;;0.20;;
36423;SDS011;22458;45.328;9.514;2022-09-17T15:37:42;0.17;;;0.10;;
36423;SDS011;22458;45.328;9.514;2022-09-17T15:40:29;0.52;;;0.30;;
36423;SDS011;22458;45.328;9.514;2022-09-17T15:43:01;1.27;;;0.20;;
36423;SDS011;22458;45.328;9.514;2022-09-17T15:45:31;0.50;;;0.20;;
36423;SDS011;22458;45.328;9.514;2022-09-17T15:48:03;1.35;;;0.20;;
36423;SDS011;22458;45.328;9.514;2022-09-17T15:58:01;0.40;;;0.30;;
36423;SDS011;22458;45.328;9.514;2022-09-17T16:00:57;0.52;;;0.20;;
36423;SDS011;22458;45.328;9.514;2022-09-17T16:06:02;1.15;;;0.30;;
36423;SDS011;22458;45.328;9.514;2022-09-17T16:08:58;0.90;;;0.20;;
36423;SDS011;22458;45.328;9.514;2022-09-17T16:11:25;0.40;;;0.20;;
36423;SDS011;22458;45.328;9.514;2022-09-17T16:13:54;0.40;;;0.20;;
36423;SDS011;22458;45.328;9.514;2022-09-17T16:16:22;0.28;;;0.20;;
36423;SDS011;22458;45.328;9.514;2022-09-17T16:18:51;0.30;;;0.17;;
36423;SDS011;22458;45.328;9.514;2022-09-17T16:21:18;0.60;;;0.30;;
36423;SDS011;22458;45.328;9.514;2022-09-17T16:23:44;0.70;;;0.10;;
36423;SDS011;22458;45.328;9.514;2022-09-17T16:26:29;0.82;;;0.20;;
36423;SDS011;22458;45.328;9.514;2022-09-17T16:28:58;0.60;;;0.20;;
36423;SDS011;22458;45.328;9.514;2022-09-17T16:31:29;0.25;;;0.10;;
36423;SDS011;22458;45.328;9.514;2022-09-17T16:33:55;1.38;;;0.20;;
36423;SDS011;22458;45.328;9.514;2022-09-17T16:36:22;0.63;;;0.35;;
36423;SDS011;22458;45.328;9.514;2022-09-17T16:38:48;0.70;;;0.20;;
36423;SDS011;22458;45.328;9.514;2022-09-17T16:41:13;0.47;;;0.20;;
36423;SDS011;22458;45.328;9.514;2022-09-17T16:43:39;0.40;;;0.20;;
36423;SDS011;22458;45.328;9.514;2022-09-17T16:46:06;2.05;;;1.08;;
36423;SDS011;22458;45.328;9.514;2022-09-17T16:48:34;0.95;;;0.40;;
36423;SDS011;22458;45.328;9.514;2022-09-17T16:51:05;0.70;;;0.20;;
36423;SDS011;22458;45.328;9.514;2022-09-17T16:53:35;1.15;;;0.40;;
36423;SDS011;22458;45.328;9.514;2022-09-17T16:56:05;0.70;;;0.28;;
36423;SDS011;22458;45.328;9.514;2022-09-17T16:58:31;0.63;;;0.20;;
36423;SDS011;22458;45.328;9.514;2022-09-17T17:01:04;0.68;;;0.47;;
36423;SDS011;22458;45.328;9.514;2022-09-17T17:03:31;0.50;;;0.20;;
36423;SDS011;22458;45.328;9.514;2022-09-17T17:05:57;0.60;;;0.30;;
36423;SDS011;22458;45.328;9.514;2022-09-17T17:08:22;0.60;;;0.30;;
36423;SDS011;22458;45.328;9.514;2022-09-17T17:10:48;0.30;;;0.20;;
36423;SDS011;22458;45.328;9.514;2022-09-17T17:13:14;2.75;;;1.60;;
36423;SDS011;22458;45.328;9.514;2022-09-17T17:15:40;1.17;;;0.60;;
36423;SDS011;22458;45.328;9.514;2022-09-17T17:18:06;1.33;;;0.40;;
36423;SDS011;22458;45.328;9.514;2022-09-17T17:20:33;0.73;;;0.47;;
36423;SDS011;22458;45.328;9.514;2022-09-17T17:23:00;1.10;;;0.30;;
36423;SDS011;22458;45.328;9.514;2022-09-17T17:25:26;1.05;;;0.43;;
36423;SDS011;22458;45.328;9.514;2022-09-17T17:27:53;1.63;;;0.65;;
36423;SDS011;22458;45.328;9.514;2022-09-17T17:30:19;0.60;;;0.30;;
36423;SDS011;22458;45.328;9.514;2022-09-17T17:32:50;1.40;;;0.40;;
36423;SDS011;22458;45.328;9.514;2022-09-17T17:35:17;1.63;;;0.50;;
36423;SDS011;22458;45.328;9.514;2022-09-17T17:37:44;0.52;;;0.20;;
36423;SDS011;22458;45.328;9.514;2022-09-17T17:40:11;0.77;;;0.55;;
36423;SDS011;22458;45.328;9.514;2022-09-17T17:42:37;0.73;;;0.32;;
36423;SDS011;22458;45.328;9.514;2022-09-17T17:45:05;2.30;;;0.30;;
36423;SDS011;22458;45.328;9.514;2022-09-17T17:47:32;0.63;;;0.35;;
36423;SDS011;22458;45.328;9.514;2022-09-17T17:49:58;1.20;;;0.65;;
36423;SDS011;22458;45.328;9.514;2022-09-17T17:52:23;3.75;;;0.98;;
36423;SDS011;22458;45.328;9.514;2022-09-17T17:54:49;1.00;;;0.57;;
36423;SDS011;22458;45.328;9.514;2022-09-17T17:57:15;0.70;;;0.30;;
36423;SDS011;22458;45.328;9.514;2022-09-17T17:59:41;0.50;;;0.20;;
36423;SDS011;22458;45.328;9.514;2022-09-17T18:02:08;0.80;;;0.38;;
36423;SDS011;22458;45.328;9.514;2022-09-17T18:04:34;0.80;;;0.35;;
36423;SDS011;22458;45.328;9.514;2022-09-17T18:07:00;0.60;;;0.40;;
36423;SDS011;22458;45.328;9.514;2022-09-17T18:09:25;2.15;;;0.47;;
36423;SDS011;22458;45.328;9.514;2022-09-17T18:11:51;1.48;;;0.30;;
36423;SDS011;22458;45.328;9.514;2022-09-17T18:14:18;1.05;;;0.60;;
36423;SDS011;22458;45.328;9.514;2022-09-17T18:16:44;0.75;;;0.40;;
36423;SDS011;22458;45.328;9.514;2022-09-17T18:19:09;0.70;;;0.32;;
36423;SDS011;22458;45.328;9.514;2022-09-17T18:21:35;0.47;;;0.32;;
36423;SDS011;22458;45.328;9.514;2022-09-17T18:24:01;0.80;;;0.50;;
36423;SDS011;22458;45.328;9.514;2022-09-17T18:26:28;0.95;;;0.52;;
36423;SDS011;22458;45.328;9.514;2022-09-17T18:28:54;1.10;;;0.50;;
36423;SDS011;22458;45.328;9.514;2022-09-17T18:33:56;1.00;;;0.70;;
36423;SDS011;22458;45.328;9.514;2022-09-17T18:36:27;2.30;;;0.50;;
36423;SDS011;22458;45.328;9.514;2022-09-17T18:38:55;2.37;;;0.80;;
36423;SDS011;22458;45.328;9.514;2022-09-17T18:41:26;1.13;;;0.70;;
36423;SDS011;22458;45.328;9.514;2022-09-17T18:43:52;1.30;;;0.77;;
36423;SDS011;22458;45.328;9.514;2022-09-17T18:46:18;1.45;;;0.82;;
36423;SDS011;22458;45.328;9.514;2022-09-17T18:48:44;1.50;;;0.93;;
36423;SDS011;22458;45.328;9.514;2022-09-17T18:51:11;2.25;;;0.70;;
36423;SDS011;22458;45.328;9.514;2022-09-17T18:53:39;3.28;;;0.70;;
36423;SDS011;22458;45.328;9.514;2022-09-17T18:58:44;1.27;;;0.63;;
36423;SDS011;22458;45.328;9.514;2022-09-17T19:01:11;0.95;;;0.60;;
36423;SDS011;22458;45.328;9.514;2022-09-17T19:03:37;1.70;;;0.98;;
36423;SDS011;22458;45.328;9.514;2022-09-17T19:06:04;2.17;;;0.70;;
36423;SDS011;22458;45.328;9.514;2022-09-17T19:08:32;1.00;;;0.63;;
36423;SDS011;22458;45.328;9.514;2022-09-17T19:10:58;1.70;;;1.13;;
36423;SDS011;22458;45.328;9.514;2022-09-17T19:13:25;0.93;;;0.60;;
36423;SDS011;22458;45.328;9.514;2022-09-17T19:15:56;1.65;;;0.70;;
36423;SDS011;22458;45.328;9.514;2022-09-17T19:18:23;1.13;;;0.73;;
36423;SDS011;22458;45.328;9.514;2022-09-17T19:20:49;1.48;;;0.90;;
36423;SDS011;22458;45.328;9.514;2022-09-17T19:23:15;1.55;;;0.85;;
36423;SDS011;22458;45.328;9.514;2022-09-17T19:25:40;1.42;;;1.08;;
36423;SDS011;22458;45.328;9.514;2022-09-17T19:28:06;1.42;;;0.80;;